createdAt,value
2018-01-15T00:00:19.266Z,33.22
2018-01-15T00:04:57.210Z,26.40
2018-01-15T00:06:58.723Z,29.58
2018-01-15T00:08:59.715Z,31.48
2018-01-15T00:11:02.914Z,30.33
2018-01-15T00:13:03.948Z,29.98
2018-01-15T00:15:32.929Z,29.90
2018-01-15T00:17:44.283Z,28.37
2018-01-15T00:19:45.362Z,26.75
2018-01-15T00:21:49.733Z,25.60
2018-01-15T00:23:51.815Z,27.80
2018-01-15T00:25:57.069Z,29.98
2018-01-15T00:27:58.223Z,29.33
2018-01-15T00:29:59.476Z,24.87
2018-01-15T00:32:00.486Z,28.33
2018-01-15T00:34:01.662Z,26.10
2018-01-15T00:36:15.890Z,31.00
2018-01-15T00:38:17.459Z,24.27
2018-01-15T00:40:18.554Z,28.35
2018-01-15T00:42:33.315Z,29.23
2018-01-15T00:44:35.482Z,26.12
2018-01-15T00:46:36.538Z,29.40
2018-01-15T00:48:37.511Z,24.35
2018-01-15T00:50:38.831Z,28.10
2018-01-15T00:52:39.909Z,20.10
2018-01-15T00:54:41.021Z,28.17
2018-01-15T00:56:42.069Z,24.67
2018-01-15T00:58:43.041Z,21.23
2018-01-15T01:01:05.124Z,22.03
2018-01-15T01:03:06.435Z,21.57
2018-01-15T01:05:07.491Z,22.93
2018-01-15T01:12:01.076Z,24.83
2018-01-15T01:14:02.838Z,20.42
2018-01-15T01:16:04.079Z,22.97
2018-01-15T01:18:06.577Z,26.60
2018-01-15T01:20:07.854Z,25.33
2018-01-15T01:22:09.142Z,27.67
2018-01-15T01:24:12.827Z,23.87
2018-01-15T01:30:20.944Z,19.47
2018-01-15T01:32:28.395Z,20.20
2018-01-15T01:34:29.651Z,22.23
2018-01-15T01:36:30.677Z,20.90
2018-01-15T01:38:31.748Z,22.62
2018-01-15T01:40:32.857Z,25.25
2018-01-15T01:42:34.175Z,24.37
2018-01-15T01:49:50.744Z,30.35
2018-01-15T01:51:51.850Z,25.20
2018-01-15T01:53:53.555Z,24.02
2018-01-15T01:55:54.760Z,25.45
2018-01-15T01:57:56.395Z,23.98
2018-01-15T01:59:57.559Z,22.67
2018-01-15T02:01:58.919Z,23.30
2018-01-15T02:04:00.302Z,25.12
2018-01-15T02:06:02.001Z,21.52
2018-01-15T02:08:03.345Z,26.70
2018-01-15T02:10:09.791Z,22.80
2018-01-15T02:12:28.732Z,24.77
2018-01-15T02:17:23.615Z,22.73
2018-01-15T02:19:24.986Z,24.55
2018-01-15T02:21:28.083Z,28.45
2018-01-15T02:23:32.371Z,20.50
2018-01-15T02:25:33.396Z,23.80
2018-01-15T02:27:34.455Z,22.35
2018-01-15T02:34:49.756Z,22.90
2018-01-15T02:39:29.069Z,21.00
2018-01-15T02:41:30.847Z,21.70
2018-01-15T02:43:31.929Z,20.30
2018-01-15T02:45:32.905Z,21.25
2018-01-15T02:47:33.981Z,19.67
2018-01-15T02:49:35.246Z,20.50
2018-01-15T02:51:36.273Z,22.13
2018-01-15T02:53:37.292Z,18.27
2018-01-15T02:55:38.409Z,21.55
2018-01-15T02:57:41.476Z,22.25
2018-01-15T02:59:42.644Z,24.35
2018-01-15T03:01:57.879Z,19.08
2018-01-15T03:04:09.291Z,20.60
2018-01-15T03:06:14.003Z,17.37
2018-01-15T03:08:15.802Z,18.27
2018-01-15T03:10:18.075Z,15.20
2018-01-15T03:12:19.095Z,17.15
2018-01-15T03:14:20.136Z,16.62
2018-01-15T03:16:32.704Z,21.45
2018-01-15T03:18:50.523Z,21.02
2018-01-15T03:20:55.619Z,20.98
2018-01-15T03:25:15.900Z,19.30
2018-01-15T03:27:17.146Z,16.73
2018-01-15T03:29:18.179Z,18.37
2018-01-15T03:31:19.177Z,22.70
2018-01-15T03:41:36.672Z,18.30
2018-01-15T03:43:37.781Z,19.65
2018-01-15T03:45:40.494Z,19.27
2018-01-15T03:55:27.181Z,23.80
2018-01-15T03:57:28.286Z,19.13
2018-01-15T03:59:29.413Z,25.25
2018-01-15T04:04:05.874Z,19.23
2018-01-15T04:08:45.233Z,18.60
2018-01-15T04:10:46.469Z,23.30
2018-01-15T04:35:21.890Z,22.30
2018-01-15T04:44:57.330Z,21.98
2018-01-15T04:47:11.699Z,20.95
2018-01-15T04:49:12.975Z,23.85
2018-01-15T04:51:14.982Z,23.77
2018-01-15T05:01:25.216Z,20.05
2018-01-15T05:03:31.839Z,25.10
2018-01-15T05:05:42.231Z,27.85
2018-01-15T05:08:05.352Z,27.48
2018-01-15T05:10:20.581Z,25.40
2018-01-15T05:14:30.651Z,20.90
2018-01-15T05:21:35.074Z,23.85
2018-01-15T05:23:36.542Z,26.63
2018-01-15T05:28:06.011Z,15.07
2018-01-15T05:30:14.687Z,15.80
2018-01-15T05:35:09.919Z,23.47
2018-01-15T05:37:33.728Z,17.07
2018-01-15T05:41:49.470Z,17.47
2018-01-15T05:49:03.196Z,16.97
2018-01-15T05:51:04.248Z,19.93
2018-01-15T05:53:05.276Z,15.97
2018-01-15T06:07:37.419Z,14.07
2018-01-15T06:11:53.422Z,28.03
2018-01-15T06:16:23.436Z,24.40
2018-01-15T06:18:25.158Z,22.93
2018-01-15T06:20:30.300Z,21.73
2018-01-15T06:22:53.478Z,23.33
2018-01-15T06:24:54.931Z,25.40
2018-01-15T06:26:55.856Z,20.40
2018-01-15T06:28:56.823Z,23.00
2018-01-15T06:30:58.449Z,18.27
2018-01-15T06:33:00.050Z,18.67
2018-01-15T06:35:10.328Z,23.10
2018-01-15T06:37:11.510Z,20.90
2018-01-15T06:39:12.544Z,22.33
2018-01-15T06:41:13.505Z,23.03
2018-01-15T06:43:16.404Z,21.47
2018-01-15T06:45:19.643Z,22.73
2018-01-15T06:47:20.708Z,22.77
2018-01-15T06:49:22.036Z,21.13
2018-01-15T06:51:23.027Z,13.93
2018-01-15T06:53:24.004Z,18.83
2018-01-15T06:55:25.064Z,29.47
2018-01-15T06:57:26.007Z,22.80
2018-01-15T06:59:26.970Z,20.63
2018-01-15T07:01:28.156Z,19.27
2018-01-15T07:03:29.121Z,23.90
2018-01-15T07:05:30.075Z,20.93
2018-01-15T07:07:31.026Z,25.70
2018-01-15T07:09:32.056Z,39.53
2018-01-15T07:11:33.027Z,25.37
2018-01-15T07:13:34.107Z,23.00
2018-01-15T07:15:35.867Z,25.60
2018-01-15T07:17:36.819Z,24.67
2018-01-15T07:19:37.800Z,30.37
2018-01-15T07:21:39.523Z,23.27
2018-01-15T07:23:40.592Z,31.60
2018-01-15T07:25:41.593Z,26.40
2018-01-15T07:27:42.700Z,25.07
2018-01-15T07:29:43.756Z,21.90
2018-01-15T07:31:44.801Z,26.10
2018-01-15T07:33:45.798Z,27.50
2018-01-15T07:35:46.765Z,27.10
2018-01-15T07:37:47.807Z,30.53
2018-01-15T07:39:48.925Z,30.43
2018-01-15T07:41:49.933Z,25.30
2018-01-15T07:43:50.924Z,24.63
2018-01-15T07:45:52.619Z,29.00
2018-01-15T07:47:54.931Z,24.87
2018-01-15T07:49:56.339Z,23.70
2018-01-15T07:51:57.417Z,22.37
2018-01-15T07:53:58.408Z,25.83
2018-01-15T07:55:59.751Z,25.30
2018-01-15T07:58:00.768Z,26.00
2018-01-15T08:00:02.593Z,22.60
2018-01-15T08:04:14.997Z,21.30
2018-01-15T08:06:16.865Z,28.37
2018-01-15T08:08:17.857Z,26.93
2018-01-15T08:10:18.902Z,26.40
2018-01-15T08:12:19.995Z,28.63
2018-01-15T08:14:21.088Z,26.80
2018-01-15T08:16:22.479Z,30.00
2018-01-15T08:18:23.508Z,24.77
2018-01-15T08:20:24.541Z,24.17
2018-01-15T08:22:25.532Z,31.40
2018-01-15T08:24:26.487Z,28.80
2018-01-15T08:26:27.768Z,25.47
2018-01-15T08:28:28.960Z,34.17
2018-01-15T08:30:30.550Z,31.70
2018-01-15T08:32:31.623Z,29.00
2018-01-15T08:34:32.818Z,32.77
2018-01-15T08:36:34.052Z,32.53
2018-01-15T08:38:48.138Z,28.87
2018-01-15T08:40:49.216Z,28.37
2018-01-15T08:42:50.291Z,26.33
2018-01-15T08:44:51.444Z,35.37
2018-01-15T08:46:52.884Z,31.77
2018-01-15T08:48:53.950Z,30.00
2018-01-15T08:51:14.909Z,28.57
2018-01-15T08:53:16.770Z,31.80
2018-01-15T08:57:55.937Z,31.70
2018-01-15T08:59:57.023Z,31.13
2018-01-15T09:01:58.272Z,26.70
2018-01-15T09:03:59.262Z,20.53
2018-01-15T09:06:01.159Z,20.57
2018-01-15T09:08:02.127Z,23.27
2018-01-15T09:10:03.593Z,37.13
2018-01-15T09:12:04.637Z,30.37
2018-01-15T09:14:05.642Z,27.70
2018-01-15T09:16:08.221Z,30.77
2018-01-15T09:18:16.409Z,34.17
2018-01-15T09:22:56.502Z,31.40
2018-01-15T09:24:57.567Z,32.60
2018-01-15T09:26:58.732Z,33.97
2018-01-15T09:28:59.879Z,36.73
2018-01-15T09:31:01.074Z,33.20
2018-01-15T09:33:02.395Z,33.83
2018-01-15T09:40:20.496Z,31.57
2018-01-15T09:42:22.372Z,27.97
2018-01-15T09:44:23.382Z,29.03
2018-01-15T09:46:25.216Z,26.80
2018-01-15T09:48:26.314Z,37.60
2018-01-15T09:50:29.462Z,28.47
2018-01-15T09:52:30.598Z,25.40
2018-01-15T09:54:31.674Z,37.20
2018-01-15T10:09:49.608Z,20.97
2018-01-15T10:16:36.583Z,35.80
2018-01-15T10:20:58.358Z,33.57
2018-01-15T10:27:45.677Z,20.27
2018-01-15T10:37:23.976Z,24.47
2018-01-15T10:39:27.315Z,35.07
2018-01-15T10:41:28.452Z,32.00
2018-01-15T10:43:40.091Z,32.40
2018-01-15T10:45:41.168Z,33.87
2018-01-15T10:47:42.473Z,22.83
2018-01-15T10:49:44.376Z,16.33
2018-01-15T10:51:45.992Z,31.03
2018-01-15T10:53:47.394Z,32.27
2018-01-15T10:55:50.711Z,26.90
2018-01-15T10:57:52.277Z,27.50
2018-01-15T11:00:00.469Z,21.93
2018-01-15T11:02:06.926Z,20.70
2018-01-15T11:04:26.408Z,30.73
2018-01-15T11:06:38.484Z,31.83
2018-01-15T11:08:42.134Z,27.43
2018-01-15T11:10:43.822Z,28.57
2018-01-15T11:17:25.928Z,31.20
2018-01-15T11:21:54.558Z,36.33
2018-01-15T11:35:27.198Z,24.67
2018-01-15T11:37:38.617Z,23.77
2018-01-15T11:39:39.604Z,26.37
2018-01-15T11:41:41.531Z,32.73
2018-01-15T11:43:42.934Z,23.93
2018-01-15T11:45:45.005Z,23.70
2018-01-15T11:47:47.008Z,22.27
2018-01-15T11:49:48.645Z,25.57
2018-01-15T11:51:49.720Z,40.67
2018-01-15T11:53:50.744Z,32.03
2018-01-15T11:55:52.578Z,24.20
2018-01-15T11:57:53.823Z,26.57
2018-01-15T11:59:54.843Z,29.13
2018-01-15T12:01:57.621Z,31.37
2018-01-15T12:03:58.840Z,24.00
2018-01-15T12:05:59.985Z,31.47
2018-01-15T12:08:01.103Z,27.27
2018-01-15T12:10:02.334Z,27.23
2018-01-15T12:12:04.536Z,23.07
2018-01-15T12:14:06.899Z,24.97
2018-01-15T12:16:09.326Z,28.77
2018-01-15T12:18:10.348Z,28.37
2018-01-15T12:20:13.005Z,25.70
2018-01-15T12:22:14.864Z,27.93
2018-01-15T12:24:19.379Z,18.70
2018-01-15T12:26:20.506Z,23.93
2018-01-15T12:28:22.914Z,40.90
2018-01-15T12:30:24.230Z,28.83
2018-01-15T12:32:25.310Z,33.30
2018-01-15T12:34:31.776Z,42.63
2018-01-15T12:39:21.357Z,29.33
2018-01-15T12:41:22.433Z,32.17
2018-01-15T12:43:23.731Z,42.13
2018-01-15T12:45:24.791Z,43.27
2018-01-15T12:47:26.734Z,36.70
2018-01-15T12:49:28.724Z,43.60
2018-01-15T12:54:08.795Z,32.90
2018-01-15T12:56:28.031Z,35.93
2018-01-15T12:58:29.855Z,34.13
2018-01-15T13:03:08.644Z,35.57
2018-01-15T13:07:58.819Z,34.30
2018-01-15T13:10:01.092Z,35.70
2018-01-15T13:12:02.147Z,35.33
2018-01-15T13:14:08.605Z,37.10
2018-01-15T13:16:09.648Z,28.63
2018-01-15T13:18:10.663Z,33.37
2018-01-15T13:20:11.712Z,38.30
2018-01-15T13:22:12.988Z,41.20
2018-01-15T13:24:14.009Z,29.83
2018-01-15T13:26:28.150Z,33.47
2018-01-15T13:28:29.140Z,34.83
2018-01-15T13:30:30.093Z,37.40
2018-01-15T13:32:31.135Z,32.97
2018-01-15T13:34:33.696Z,36.33
2018-01-15T13:36:34.717Z,40.47
2018-01-15T13:38:35.687Z,39.77
2018-01-15T13:40:36.679Z,37.03
2018-01-15T13:42:49.867Z,34.13
2018-01-15T13:44:51.168Z,30.70
2018-01-15T13:46:52.882Z,36.97
2018-01-15T13:48:58.002Z,35.23
2018-01-15T13:50:59.106Z,27.40
2018-01-15T13:53:00.162Z,36.00
2018-01-15T13:55:01.234Z,31.43
2018-01-15T13:57:02.979Z,28.07
2018-01-15T13:59:04.112Z,34.97
2018-01-15T14:01:05.109Z,27.63
2018-01-15T14:03:10.280Z,26.03
2018-01-15T14:05:16.087Z,35.97
2018-01-15T14:07:17.345Z,23.17
2018-01-15T14:09:29.603Z,27.73
2018-01-15T14:11:30.591Z,26.40
2018-01-15T14:13:31.592Z,28.77
2018-01-15T14:15:32.571Z,21.67
2018-01-15T14:17:33.564Z,23.50
2018-01-15T14:19:34.535Z,31.77
2018-01-15T14:21:35.781Z,30.67
2018-01-15T14:23:36.775Z,31.23
2018-01-15T14:25:37.807Z,24.93
2018-01-15T14:27:38.918Z,18.10
2018-01-15T14:29:39.916Z,31.27
2018-01-15T14:31:41.002Z,26.57
2018-01-15T14:33:42.318Z,24.23
2018-01-15T14:35:43.999Z,31.73
2018-01-15T14:37:45.210Z,32.47
2018-01-15T14:39:46.168Z,33.90
2018-01-15T14:41:47.242Z,26.17
2018-01-15T14:43:48.251Z,29.00
2018-01-15T14:45:49.286Z,27.83
2018-01-15T14:47:50.300Z,25.43
2018-01-15T14:49:51.581Z,28.00
2018-01-15T14:51:57.879Z,25.43
2018-01-15T14:56:45.350Z,15.97
2018-01-15T14:58:48.945Z,14.20
2018-01-15T15:03:20.861Z,20.87
2018-01-15T15:05:22.038Z,29.37
2018-01-15T15:07:23.088Z,34.33
2018-01-15T15:09:44.940Z,29.83
2018-01-15T15:11:46.192Z,20.53
2018-01-15T15:13:47.291Z,17.57
2018-01-15T15:15:48.335Z,32.37
2018-01-15T15:17:49.402Z,31.53
2018-01-15T15:19:50.740Z,29.40
2018-01-15T15:21:53.006Z,26.23
2018-01-15T15:24:14.745Z,31.23
2018-01-15T15:30:43.807Z,25.73
2018-01-15T15:32:52.082Z,20.40
2018-01-15T15:35:17.284Z,17.60
2018-01-15T15:37:19.320Z,22.33
2018-01-15T15:44:29.576Z,13.47
2018-01-15T15:49:25.930Z,21.43
2018-01-15T15:53:35.538Z,23.90
2018-01-15T15:55:37.683Z,16.43
2018-01-15T16:02:48.271Z,15.57
2018-01-15T16:04:52.148Z,19.60
2018-01-15T16:06:53.253Z,24.77
2018-01-15T16:11:14.360Z,24.70
2018-01-15T16:13:15.399Z,22.13
2018-01-15T16:15:16.387Z,21.17
2018-01-15T16:17:18.997Z,24.43
2018-01-15T16:19:20.081Z,25.00
2018-01-15T16:21:21.002Z,23.30
2018-01-15T16:23:22.266Z,18.10
2018-01-15T16:25:23.712Z,23.07
2018-01-15T16:27:24.704Z,17.80
2018-01-15T16:29:25.843Z,21.93
2018-01-15T16:31:26.815Z,27.70
2018-01-15T16:35:34.755Z,30.33
2018-01-15T16:40:32.407Z,16.13
2018-01-15T16:42:44.472Z,19.50
2018-01-15T16:44:45.581Z,19.17
2018-01-15T16:46:46.534Z,20.37
2018-01-15T16:48:48.336Z,22.00
2018-01-15T16:50:50.551Z,21.47
2018-01-15T16:52:54.533Z,21.93
2018-01-15T16:54:55.530Z,18.87
2018-01-15T16:56:56.480Z,21.70
2018-01-15T16:58:57.750Z,20.30
2018-01-15T17:01:04.747Z,16.80
2018-01-15T17:03:05.796Z,19.50
2018-01-15T17:05:09.335Z,15.07
2018-01-15T17:07:10.582Z,21.33
2018-01-15T17:09:11.615Z,14.83
2018-01-15T17:11:12.750Z,19.43
2018-01-15T17:13:13.791Z,23.73
2018-01-15T17:15:15.549Z,21.50
2018-01-15T17:17:16.635Z,15.03
2018-01-15T17:19:17.599Z,21.20
2018-01-15T17:21:18.554Z,24.77
2018-01-15T17:23:23.285Z,22.57
2018-01-15T17:25:24.390Z,19.53
2018-01-15T17:27:25.421Z,21.40
2018-01-15T17:29:26.484Z,18.67
2018-01-15T17:31:28.588Z,24.17
2018-01-15T17:33:29.654Z,15.10
2018-01-15T17:35:37.719Z,19.30
2018-01-15T17:37:39.830Z,14.10
2018-01-15T17:39:47.604Z,14.87
2018-01-15T17:41:48.612Z,17.53
2018-01-15T17:43:58.210Z,19.93
2018-01-15T17:45:59.252Z,19.03
2018-01-15T17:48:00.199Z,12.60
2018-01-15T17:50:01.187Z,20.47
2018-01-15T17:52:02.216Z,25.27
2018-01-15T17:54:09.972Z,23.67
2018-01-15T17:56:12.818Z,25.93
2018-01-15T17:58:13.877Z,18.33
2018-01-15T18:03:10.722Z,16.13
2018-01-15T18:05:11.823Z,15.07
2018-01-15T18:07:15.353Z,16.47
2018-01-15T18:19:48.109Z,12.30
2018-01-15T18:22:13.917Z,13.60
2018-01-15T18:24:14.990Z,11.67
2018-01-15T18:26:16.171Z,16.37
2018-01-15T18:28:30.656Z,13.13
2018-01-15T18:33:14.711Z,14.13
2018-01-15T18:35:19.426Z,11.47
2018-01-15T18:39:33.293Z,10.70
2018-01-15T18:41:34.502Z,11.27
2018-01-15T18:43:35.637Z,16.40
2018-01-15T18:45:41.186Z,11.83
2018-01-15T18:48:24.160Z,8.77
2018-01-15T18:50:25.221Z,9.70
2018-01-15T18:52:37.943Z,16.57
2018-01-15T18:54:39.238Z,8.60
2018-01-15T18:56:42.062Z,6.00
2018-01-15T18:58:56.232Z,7.87
2018-01-15T19:03:08.741Z,10.90
2018-01-15T19:05:13.323Z,8.83
2018-01-15T19:07:15.504Z,11.57
2018-01-15T19:09:18.710Z,12.80
2018-01-15T19:11:19.768Z,13.13
2018-01-15T19:13:21.638Z,8.70
2018-01-15T19:15:26.040Z,5.87
2018-01-15T19:17:28.389Z,16.17
2018-01-15T19:19:29.504Z,10.40
2018-01-15T19:21:32.433Z,9.63
2018-01-15T19:23:38.716Z,8.60
2018-01-15T19:26:02.233Z,9.60
2018-01-15T19:28:03.343Z,10.20
2018-01-15T19:30:04.351Z,11.73
2018-01-15T19:32:05.431Z,13.33
2018-01-15T19:34:06.529Z,10.20
2018-01-15T19:36:16.505Z,14.47
2018-01-15T19:38:19.341Z,13.10
2018-01-15T19:43:01.403Z,13.63
2018-01-15T19:45:08.431Z,12.73
2018-01-15T19:47:15.607Z,10.70
2018-01-15T19:49:31.600Z,11.20
2018-01-15T19:51:38.733Z,13.13
2018-01-15T19:53:47.516Z,15.70
2018-01-15T19:58:13.088Z,9.60
2018-01-15T20:02:57.997Z,9.60
2018-01-15T20:05:15.966Z,11.10
2018-01-15T20:07:25.672Z,9.27
2018-01-15T20:09:41.411Z,11.97
2018-01-15T20:11:42.580Z,9.47
2018-01-15T20:13:43.644Z,8.90
2018-01-15T20:15:44.805Z,18.30
2018-01-15T20:17:45.882Z,10.97
2018-01-15T20:19:47.154Z,15.37
2018-01-15T20:28:47.414Z,12.47
2018-01-15T20:30:48.723Z,13.57
2018-01-15T20:32:53.135Z,9.33
2018-01-15T20:34:54.316Z,11.83
2018-01-15T20:37:01.219Z,11.83
2018-01-15T20:39:09.619Z,10.93
2018-01-15T20:41:11.288Z,10.33
2018-01-15T20:43:31.219Z,11.63
2018-01-15T20:45:36.563Z,11.87
2018-01-15T20:47:39.188Z,6.90
2018-01-15T20:49:40.654Z,11.50
2018-01-15T20:51:41.759Z,6.20
2018-01-15T20:53:45.396Z,9.67
2018-01-15T20:58:05.915Z,5.20
2018-01-15T21:13:15.744Z,6.70
2018-01-15T21:15:16.919Z,10.30
2018-01-15T21:17:17.970Z,12.20
2018-01-15T21:19:36.839Z,10.87
2018-01-15T21:21:38.954Z,6.40
2018-01-15T21:26:08.225Z,10.13
2018-01-15T21:28:09.280Z,5.90
2018-01-15T21:30:10.385Z,8.23
2018-01-15T21:38:47.089Z,3.53
2018-01-15T21:40:54.384Z,7.77
2018-01-15T21:42:55.523Z,8.37
2018-01-15T21:47:34.504Z,5.40
2018-01-15T21:49:35.471Z,6.77
2018-01-15T21:51:37.513Z,7.00
2018-01-15T21:53:38.540Z,7.10
2018-01-15T21:58:17.664Z,5.93
2018-01-15T22:00:19.305Z,6.97
2018-01-15T22:05:09.042Z,5.00
2018-01-15T22:09:37.823Z,4.80
2018-01-15T22:14:18.222Z,4.00
2018-01-15T22:26:28.832Z,3.87
2018-01-15T22:30:53.537Z,3.87
2018-01-15T22:32:57.630Z,4.03
2018-01-15T22:35:00.301Z,4.30
2018-01-15T22:37:51.307Z,3.27
2018-01-15T22:39:52.369Z,4.20
2018-01-15T22:41:53.488Z,3.53
2018-01-15T22:43:54.552Z,5.33
2018-01-15T22:46:16.805Z,4.20
2018-01-15T22:48:25.338Z,4.60
2018-01-15T22:58:26.727Z,4.90
2018-01-15T23:00:28.569Z,3.10
2018-01-15T23:05:15.238Z,4.37
2018-01-15T23:07:16.208Z,3.27
2018-01-15T23:09:17.195Z,3.80
2018-01-15T23:11:18.299Z,3.30
2018-01-15T23:18:35.196Z,5.20
2018-01-15T23:20:39.255Z,4.97
2018-01-15T23:22:51.224Z,3.63
2018-01-15T23:24:52.281Z,2.80
2018-01-15T23:26:53.257Z,4.63
2018-01-15T23:28:54.327Z,2.40
2018-01-15T23:33:41.115Z,3.20
2018-01-15T23:44:17.796Z,3.27
2018-01-15T23:51:29.868Z,2.50
2018-01-15T23:53:31.027Z,2.40
2018-01-15T23:55:32.047Z,3.40
2018-01-15T23:57:34.108Z,2.30
2018-01-15T23:59:38.222Z,2.93
